sensor_id;sensor_type;location;lat;lon;timestamp;pressure;altitude;pressure_sealevel;temperature;humidity
8585;BME280;7180;52.742;11.420;2023-12-28T00:00:37;77166.63;;;-142.35;86.11
8585;BME280;7180;52.742;11.420;2023-12-28T00:03:02;77146.47;;;-142.35;85.53
8585;BME280;7180;52.742;11.420;2023-12-28T00:05:28;77136.38;;;-142.35;85.33
8585;BME280;7180;52.742;11.420;2023-12-28T00:07:53;77122.28;;;-142.35;85.15
8585;BME280;7180;52.742;11.420;2023-12-28T00:10:27;77108.16;;;-142.35;84.51
8585;BME280;7180;52.742;11.420;2023-12-28T00:12:53;77098.09;;;-142.35;84.19
8585;BME280;7180;52.742;11.420;2023-12-28T00:15:18;77085.97;;;-142.35;84.27
8585;BME280;7180;52.742;11.420;2023-12-28T00:17:43;77075.91;;;-142.35;83.75
8585;BME280;7180;52.742;11.420;2023-12-28T00:20:09;77059.78;;;-142.35;83.74
8585;BME280;7180;52.742;11.420;2023-12-28T00:22:35;77047.69;;;-142.35;83.35
8585;BME280;7180;52.742;11.420;2023-12-28T00:25:03;77055.75;;;-142.35;83.52
8585;BME280;7180;52.742;11.420;2023-12-28T00:27:28;77045.66;;;-142.35;83.42
8585;BME280;7180;52.742;11.420;2023-12-28T00:29:53;77027.53;;;-142.35;83.41
8585;BME280;7180;52.742;11.420;2023-12-28T00:32:18;77015.41;;;-142.35;83.22
8585;BME280;7180;52.742;11.420;2023-12-28T00:34:44;76999.28;;;-142.35;82.97
8585;BME280;7180;52.742;11.420;2023-12-28T00:37:09;76981.16;;;-142.35;82.53
8585;BME280;7180;52.742;11.420;2023-12-28T00:39:34;76975.09;;;-142.35;82.17
8585;BME280;7180;52.742;11.420;2023-12-28T00:42:00;76967.03;;;-142.35;82.03
8585;BME280;7180;52.742;11.420;2023-12-28T00:44:26;76956.97;;;-142.35;81.66
8585;BME280;7180;52.742;11.420;2023-12-28T00:46:51;76926.72;;;-142.35;81.17
8585;BME280;7180;52.742;11.420;2023-12-28T00:49:16;76898.50;;;-142.35;80.98
8585;BME280;7180;52.742;11.420;2023-12-28T00:51:41;76866.25;;;-142.35;80.35
8585;BME280;7180;52.742;11.420;2023-12-28T00:54:07;76811.81;;;-142.35;79.60
8585;BME280;7180;52.742;11.420;2023-12-28T00:56:32;76775.53;;;-142.35;79.14
8585;BME280;7180;52.742;11.420;2023-12-28T00:58:57;76763.44;;;-142.35;78.76
8585;BME280;7180;52.742;11.420;2023-12-28T01:01:22;76757.38;;;-142.35;78.25
8585;BME280;7180;52.742;11.420;2023-12-28T01:03:48;76749.31;;;-142.35;78.09
8585;BME280;7180;52.742;11.420;2023-12-28T01:06:13;76713.03;;;-142.35;77.42
8585;BME280;7180;52.742;11.420;2023-12-28T01:08:38;76660.63;;;-142.35;77.13
8585;BME280;7180;52.742;11.420;2023-12-28T01:11:04;76604.19;;;-142.35;76.25
8585;BME280;7180;52.742;11.420;2023-12-28T01:13:29;76539.66;;;-142.35;75.09
8585;BME280;7180;52.742;11.420;2023-12-28T01:15:56;76471.13;;;-142.35;74.41
8585;BME280;7180;52.742;11.420;2023-12-28T01:18:21;76376.41;;;-142.35;73.11
8585;BME280;7180;52.742;11.420;2023-12-28T01:20:46;76269.56;;;-142.35;71.99
8585;BME280;7180;52.742;11.420;2023-12-28T01:23:12;76182.91;;;-142.35;70.56
8585;BME280;7180;52.742;11.420;2023-12-28T01:25:37;76124.44;;;-142.35;69.98
8585;BME280;7180;52.742;11.420;2023-12-28T01:28:03;76084.13;;;-142.35;69.39
8585;BME280;7180;52.742;11.420;2023-12-28T01:30:28;76037.78;;;-142.35;68.96
8585;BME280;7180;52.742;11.420;2023-12-28T01:32:53;76003.53;;;-142.35;68.54
8585;BME280;7180;52.742;11.420;2023-12-28T01:35:19;75979.34;;;-142.35;68.19
8585;BME280;7180;52.742;11.420;2023-12-28T01:37:44;75949.09;;;-142.35;67.79
8585;BME280;7180;52.742;11.420;2023-12-28T01:40:11;75930.97;;;-142.35;67.76
8585;BME280;7180;52.742;11.420;2023-12-28T01:42:36;75896.69;;;-142.35;67.37
8585;BME280;7180;52.742;11.420;2023-12-28T01:45:02;75872.53;;;-142.35;67.07
8585;BME280;7180;52.742;11.420;2023-12-28T01:47:29;75818.09;;;-142.35;66.70
8585;BME280;7180;52.742;11.420;2023-12-28T01:49:55;75757.66;;;-142.35;66.09
8585;BME280;7180;52.742;11.420;2023-12-28T01:52:21;75695.16;;;-142.35;65.82
8585;BME280;7180;52.742;11.420;2023-12-28T01:54:46;75636.72;;;-142.35;65.25
8585;BME280;7180;52.742;11.420;2023-12-28T01:57:13;75576.28;;;-142.35;64.68
8585;BME280;7180;52.742;11.420;2023-12-28T01:59:39;75527.91;;;-142.35;64.25
8585;BME280;7180;52.742;11.420;2023-12-28T02:02:05;75489.63;;;-142.35;63.77
8585;BME280;7180;52.742;11.420;2023-12-28T02:04:30;75475.50;;;-142.35;63.59
8585;BME280;7180;52.742;11.420;2023-12-28T02:06:57;75487.59;;;-142.35;63.63
8585;BME280;7180;52.742;11.420;2023-12-28T02:09:22;75461.41;;;-142.35;63.59
8585;BME280;7180;52.742;11.420;2023-12-28T02:11:48;75415.06;;;-142.35;63.12
8585;BME280;7180;52.742;11.420;2023-12-28T02:14:13;75384.84;;;-142.35;63.00
8585;BME280;7180;52.742;11.420;2023-12-28T02:16:44;75368.72;;;-142.35;62.77
8585;BME280;7180;52.742;11.420;2023-12-28T02:22:14;75304.22;;;-142.35;62.37
8585;BME280;7180;52.742;11.420;2023-12-28T02:25:08;75318.34;;;-142.35;62.42
8585;BME280;7180;52.742;11.420;2023-12-28T02:27:44;75318.34;;;-142.35;62.44
8585;BME280;7180;52.742;11.420;2023-12-28T02:30:15;75290.13;;;-142.35;62.12
8585;BME280;7180;52.742;11.420;2023-12-28T02:35:24;75360.66;;;-142.35;62.69
8585;BME280;7180;52.742;11.420;2023-12-28T02:37:52;75360.66;;;-142.35;62.42
8585;BME280;7180;52.742;11.420;2023-12-28T02:40:19;75378.78;;;-142.35;62.73
8585;BME280;7180;52.742;11.420;2023-12-28T02:42:44;75398.94;;;-142.35;62.88
8585;BME280;7180;52.742;11.420;2023-12-28T02:45:09;75398.94;;;-142.35;62.71
8585;BME280;7180;52.742;11.420;2023-12-28T02:47:35;75402.97;;;-142.35;62.68
8585;BME280;7180;52.742;11.420;2023-12-28T02:50:01;75469.47;;;-142.35;63.46
8585;BME280;7180;52.742;11.420;2023-12-28T02:52:26;75542.00;;;-142.35;63.76
8585;BME280;7180;52.742;11.420;2023-12-28T02:54:51;75638.75;;;-142.35;64.49
8585;BME280;7180;52.742;11.420;2023-12-28T02:57:17;75715.31;;;-142.35;64.81
8585;BME280;7180;52.742;11.420;2023-12-28T02:59:45;75767.72;;;-142.35;65.09
8585;BME280;7180;52.742;11.420;2023-12-28T03:02:10;75797.94;;;-142.35;65.26
8585;BME280;7180;52.742;11.420;2023-12-28T03:04:35;75842.28;;;-142.35;65.68
8585;BME280;7180;52.742;11.420;2023-12-28T03:07:00;75874.53;;;-142.35;65.71
8585;BME280;7180;52.742;11.420;2023-12-28T03:09:26;75943.06;;;-142.35;66.19
8585;BME280;7180;52.742;11.420;2023-12-28T03:11:51;75967.25;;;-142.35;66.38
8585;BME280;7180;52.742;11.420;2023-12-28T03:14:17;75979.34;;;-142.35;66.58
8585;BME280;7180;52.742;11.420;2023-12-28T03:16:42;75993.44;;;-142.35;66.56
8585;BME280;7180;52.742;11.420;2023-12-28T03:19:08;76068.00;;;-142.35;66.87
8585;BME280;7180;52.742;11.420;2023-12-28T03:21:33;76051.91;;;-142.35;66.88
8585;BME280;7180;52.742;11.420;2023-12-28T03:23:58;76051.91;;;-142.35;66.73
8585;BME280;7180;52.742;11.420;2023-12-28T03:26:23;76076.06;;;-142.35;66.94
8585;BME280;7180;52.742;11.420;2023-12-28T03:28:49;76066.00;;;-142.35;66.97
8585;BME280;7180;52.742;11.420;2023-12-28T03:31:14;76063.97;;;-142.35;66.97
8585;BME280;7180;52.742;11.420;2023-12-28T03:33:39;76076.06;;;-142.35;66.76
8585;BME280;7180;52.742;11.420;2023-12-28T03:36:05;76106.31;;;-142.35;67.15
8585;BME280;7180;52.742;11.420;2023-12-28T03:38:30;76156.69;;;-142.35;67.75
8585;BME280;7180;52.742;11.420;2023-12-28T03:40:56;76158.72;;;-142.35;67.47
8585;BME280;7180;52.742;11.420;2023-12-28T03:43:21;76170.81;;;-142.35;67.66
8585;BME280;7180;52.742;11.420;2023-12-28T03:45:46;76186.94;;;-142.35;67.74
8585;BME280;7180;52.742;11.420;2023-12-28T03:48:11;76207.09;;;-142.35;68.06
8585;BME280;7180;52.742;11.420;2023-12-28T03:50:37;76201.03;;;-142.35;67.71
8585;BME280;7180;52.742;11.420;2023-12-28T03:53:02;76207.09;;;-142.35;68.08
8585;BME280;7180;52.742;11.420;2023-12-28T03:55:27;76221.19;;;-142.35;68.00
8585;BME280;7180;52.742;11.420;2023-12-28T03:57:53;76225.22;;;-142.35;67.90
8585;BME280;7180;52.742;11.420;2023-12-28T04:00:18;76261.50;;;-142.35;68.39
8585;BME280;7180;52.742;11.420;2023-12-28T04:02:43;76293.75;;;-142.35;68.59
8585;BME280;7180;52.742;11.420;2023-12-28T04:05:09;76315.94;;;-142.35;69.01
8585;BME280;7180;52.742;11.420;2023-12-28T04:07:34;76334.06;;;-142.35;69.23
8585;BME280;7180;52.742;11.420;2023-12-28T04:09:59;76358.25;;;-142.35;69.22
8585;BME280;7180;52.742;11.420;2023-12-28T04:12:24;76402.59;;;-142.35;69.60
8585;BME280;7180;52.742;11.420;2023-12-28T04:14:50;76430.81;;;-142.35;69.90
8585;BME280;7180;52.742;11.420;2023-12-28T04:17:15;76434.84;;;-142.35;70.15
8585;BME280;7180;52.742;11.420;2023-12-28T04:19:40;76450.97;;;-142.35;70.10
8585;BME280;7180;52.742;11.420;2023-12-28T04:22:05;76459.03;;;-142.35;70.31
8585;BME280;7180;52.742;11.420;2023-12-28T04:24:31;76481.22;;;-142.35;70.75
8585;BME280;7180;52.742;11.420;2023-12-28T04:26:56;76503.38;;;-142.35;70.97
8585;BME280;7180;52.742;11.420;2023-12-28T04:29:21;76523.53;;;-142.35;71.40
8585;BME280;7180;52.742;11.420;2023-12-28T04:31:47;76543.69;;;-142.35;71.30
8585;BME280;7180;52.742;11.420;2023-12-28T04:34:12;76549.75;;;-142.35;71.43
8585;BME280;7180;52.742;11.420;2023-12-28T04:36:43;76561.84;;;-142.35;71.94
8585;BME280;7180;52.742;11.420;2023-12-28T04:39:10;76582.00;;;-142.35;72.20
8585;BME280;7180;52.742;11.420;2023-12-28T04:41:35;76573.94;;;-142.35;72.19
8585;BME280;7180;52.742;11.420;2023-12-28T04:44:00;76563.84;;;-142.35;72.11
8585;BME280;7180;52.742;11.420;2023-12-28T04:46:26;76573.94;;;-142.35;72.16
8585;BME280;7180;52.742;11.420;2023-12-28T04:48:51;76616.28;;;-142.35;72.51
8585;BME280;7180;52.742;11.420;2023-12-28T04:51:16;76618.28;;;-142.35;72.75
8585;BME280;7180;52.742;11.420;2023-12-28T04:53:42;76660.63;;;-142.35;73.41
8585;BME280;7180;52.742;11.420;2023-12-28T04:56:07;76690.84;;;-142.35;73.81
8585;BME280;7180;52.742;11.420;2023-12-28T04:58:32;76713.03;;;-142.35;74.19
8585;BME280;7180;52.742;11.420;2023-12-28T05:00:57;76715.03;;;-142.35;74.17
8585;BME280;7180;52.742;11.420;2023-12-28T05:03:23;76717.06;;;-142.35;74.32
8585;BME280;7180;52.742;11.420;2023-12-28T05:05:48;76729.16;;;-142.35;74.84
8585;BME280;7180;52.742;11.420;2023-12-28T05:08:13;76717.06;;;-142.35;74.89
8585;BME280;7180;52.742;11.420;2023-12-28T05:10:38;76709.00;;;-142.35;74.86
8585;BME280;7180;52.742;11.420;2023-12-28T05:13:04;76729.16;;;-142.35;74.80
8585;BME280;7180;52.742;11.420;2023-12-28T05:15:29;76745.28;;;-142.35;75.23
8585;BME280;7180;52.742;11.420;2023-12-28T05:17:54;76753.34;;;-142.35;75.22
8585;BME280;7180;52.742;11.420;2023-12-28T05:20:20;76773.50;;;-142.35;75.29
8585;BME280;7180;52.742;11.420;2023-12-28T05:22:45;76793.66;;;-142.35;75.93
8585;BME280;7180;52.742;11.420;2023-12-28T05:25:10;76793.66;;;-142.35;76.11
8585;BME280;7180;52.742;11.420;2023-12-28T05:27:35;76817.84;;;-142.35;75.94
8585;BME280;7180;52.742;11.420;2023-12-28T05:30:01;76831.97;;;-142.35;76.33
8585;BME280;7180;52.742;11.420;2023-12-28T05:32:26;76848.09;;;-142.35;76.64
8585;BME280;7180;52.742;11.420;2023-12-28T05:34:51;76874.31;;;-142.35;77.18
8585;BME280;7180;52.742;11.420;2023-12-28T05:37:16;76882.38;;;-142.35;77.19
8585;BME280;7180;52.742;11.420;2023-12-28T05:39:42;76894.47;;;-142.35;77.59
8585;BME280;7180;52.742;11.420;2023-12-28T05:42:07;76894.47;;;-142.35;77.84
8585;BME280;7180;52.742;11.420;2023-12-28T05:44:33;76890.44;;;-142.35;77.98
8585;BME280;7180;52.742;11.420;2023-12-28T05:46:59;76886.41;;;-142.35;77.69
8585;BME280;7180;52.742;11.420;2023-12-28T05:49:24;76906.56;;;-142.35;77.76
8585;BME280;7180;52.742;11.420;2023-12-28T05:51:50;76918.66;;;-142.35;78.25
8585;BME280;7180;52.742;11.420;2023-12-28T05:54:15;76930.75;;;-142.35;78.09
8585;BME280;7180;52.742;11.420;2023-12-28T05:56:40;76958.97;;;-142.35;78.29
8585;BME280;7180;52.742;11.420;2023-12-28T05:59:06;76971.06;;;-142.35;78.86
8585;BME280;7180;52.742;11.420;2023-12-28T06:01:32;76983.16;;;-142.35;78.76
8585;BME280;7180;52.742;11.420;2023-12-28T06:03:57;76993.25;;;-142.35;78.91
8585;BME280;7180;52.742;11.420;2023-12-28T06:06:22;77003.31;;;-142.35;79.13
8585;BME280;7180;52.742;11.420;2023-12-28T06:08:48;77013.41;;;-142.35;79.04
8585;BME280;7180;52.742;11.420;2023-12-28T06:11:13;77025.50;;;-142.35;79.41
8585;BME280;7180;52.742;11.420;2023-12-28T06:13:38;77019.47;;;-142.35;79.28
8585;BME280;7180;52.742;11.420;2023-12-28T06:16:04;77035.59;;;-142.35;79.44
8585;BME280;7180;52.742;11.420;2023-12-28T06:18:29;77031.56;;;-142.35;79.54
8585;BME280;7180;52.742;11.420;2023-12-28T06:20:54;77043.66;;;-142.35;79.70
8585;BME280;7180;52.742;11.420;2023-12-28T06:23:20;77041.63;;;-142.35;79.60
8585;BME280;7180;52.742;11.420;2023-12-28T06:25:45;77025.50;;;-142.35;79.67
8585;BME280;7180;52.742;11.420;2023-12-28T06:28:11;77019.47;;;-142.35;79.54
8585;BME280;7180;52.742;11.420;2023-12-28T06:30:36;77013.41;;;-142.35;79.25
8585;BME280;7180;52.742;11.420;2023-12-28T06:33:01;77019.47;;;-142.35;79.31
8585;BME280;7180;52.742;11.420;2023-12-28T06:35:26;77033.56;;;-142.35;79.44
8585;BME280;7180;52.742;11.420;2023-12-28T06:37:52;77039.63;;;-142.35;79.26
8585;BME280;7180;52.742;11.420;2023-12-28T06:40:17;77039.63;;;-142.35;79.46
8585;BME280;7180;52.742;11.420;2023-12-28T06:42:42;77039.63;;;-142.35;79.27
8585;BME280;7180;52.742;11.420;2023-12-28T06:45:09;77047.69;;;-142.35;79.23
8585;BME280;7180;52.742;11.420;2023-12-28T06:47:34;77051.72;;;-142.35;79.17
8585;BME280;7180;52.742;11.420;2023-12-28T06:49:59;77043.66;;;-142.35;79.30
8585;BME280;7180;52.742;11.420;2023-12-28T06:52:25;77043.66;;;-142.35;78.66
8585;BME280;7180;52.742;11.420;2023-12-28T06:54:51;77035.59;;;-142.35;78.71
8585;BME280;7180;52.742;11.420;2023-12-28T06:57:17;77035.59;;;-142.35;78.89
8585;BME280;7180;52.742;11.420;2023-12-28T06:59:42;77033.56;;;-142.35;78.68
8585;BME280;7180;52.742;11.420;2023-12-28T07:02:07;77015.41;;;-142.35;78.54
8585;BME280;7180;52.742;11.420;2023-12-28T07:04:32;76987.19;;;-142.35;78.21
8585;BME280;7180;52.742;11.420;2023-12-28T07:06:58;76967.03;;;-142.35;78.09
8585;BME280;7180;52.742;11.420;2023-12-28T07:09:23;76946.88;;;-142.35;78.08
8585;BME280;7180;52.742;11.420;2023-12-28T07:11:48;76946.88;;;-142.35;77.71
8585;BME280;7180;52.742;11.420;2023-12-28T07:14:14;76948.91;;;-142.35;77.74
8585;BME280;7180;52.742;11.420;2023-12-28T07:16:39;76946.88;;;-142.35;77.79
8585;BME280;7180;52.742;11.420;2023-12-28T07:19:04;76952.94;;;-142.35;77.74
8585;BME280;7180;52.742;11.420;2023-12-28T07:21:29;76954.94;;;-142.35;77.44
8585;BME280;7180;52.742;11.420;2023-12-28T07:23:55;76958.97;;;-142.35;77.67
8585;BME280;7180;52.742;11.420;2023-12-28T07:26:20;76967.03;;;-142.35;77.73
8585;BME280;7180;52.742;11.420;2023-12-28T07:28:45;76975.09;;;-142.35;77.52
8585;BME280;7180;52.742;11.420;2023-12-28T07:31:25;77001.31;;;-142.35;77.87
8585;BME280;7180;52.742;11.420;2023-12-28T07:33:51;77007.34;;;-142.35;77.96
8585;BME280;7180;52.742;11.420;2023-12-28T07:36:16;77017.44;;;-142.35;77.97
8585;BME280;7180;52.742;11.420;2023-12-28T07:38:42;77027.53;;;-142.35;78.20
8585;BME280;7180;52.742;11.420;2023-12-28T07:41:08;77031.56;;;-142.35;78.46
8585;BME280;7180;52.742;11.420;2023-12-28T07:43:34;77031.56;;;-142.35;78.19
8585;BME280;7180;52.742;11.420;2023-12-28T07:45:59;77031.56;;;-142.35;78.21
8585;BME280;7180;52.742;11.420;2023-12-28T07:48:24;77025.50;;;-142.35;78.18
8585;BME280;7180;52.742;11.420;2023-12-28T07:50:49;77019.47;;;-142.35;78.26
8585;BME280;7180;52.742;11.420;2023-12-28T07:53:17;77025.50;;;-142.35;78.25
8585;BME280;7180;52.742;11.420;2023-12-28T07:55:42;77031.56;;;-142.35;78.13
8585;BME280;7180;52.742;11.420;2023-12-28T07:58:07;77025.50;;;-142.35;78.31
8585;BME280;7180;52.742;11.420;2023-12-28T08:00:32;77011.38;;;-142.35;77.91
8585;BME280;7180;52.742;11.420;2023-12-28T08:02:58;77007.34;;;-142.35;78.15
8585;BME280;7180;52.742;11.420;2023-12-28T08:05:23;77003.31;;;-142.35;77.84
8585;BME280;7180;52.742;11.420;2023-12-28T08:07:49;76991.22;;;-142.35;77.83
8585;BME280;7180;52.742;11.420;2023-12-28T08:10:14;76985.19;;;-142.35;77.64
8585;BME280;7180;52.742;11.420;2023-12-28T08:12:39;76977.13;;;-142.35;77.62
8585;BME280;7180;52.742;11.420;2023-12-28T08:15:05;76965.03;;;-142.35;77.47
8585;BME280;7180;52.742;11.420;2023-12-28T08:17:30;76950.91;;;-142.35;77.44
8585;BME280;7180;52.742;11.420;2023-12-28T08:19:56;76948.91;;;-142.35;77.32
8585;BME280;7180;52.742;11.420;2023-12-28T08:22:21;76938.81;;;-142.35;77.42
8585;BME280;7180;52.742;11.420;2023-12-28T08:24:46;76926.72;;;-142.35;77.25
8585;BME280;7180;52.742;11.420;2023-12-28T08:27:12;76916.63;;;-142.35;77.14
8585;BME280;7180;52.742;11.420;2023-12-28T08:29:37;76908.56;;;-142.35;77.10
8585;BME280;7180;52.742;11.420;2023-12-28T08:32:03;76908.56;;;-142.35;76.81
8585;BME280;7180;52.742;11.420;2023-12-28T08:34:28;76894.47;;;-142.35;76.62
8585;BME280;7180;52.742;11.420;2023-12-28T08:36:53;76882.38;;;-142.35;76.67
8585;BME280;7180;52.742;11.420;2023-12-28T08:39:19;76882.38;;;-142.35;76.63
8585;BME280;7180;52.742;11.420;2023-12-28T08:41:44;76882.38;;;-142.35;76.51
8585;BME280;7180;52.742;11.420;2023-12-28T08:44:09;76886.41;;;-142.35;76.67
8585;BME280;7180;52.742;11.420;2023-12-28T08:46:35;76874.31;;;-142.35;76.49
8585;BME280;7180;52.742;11.420;2023-12-28T08:49:00;76870.28;;;-142.35;76.22
8585;BME280;7180;52.742;11.420;2023-12-28T08:51:25;76850.09;;;-142.35;76.33
8585;BME280;7180;52.742;11.420;2023-12-28T08:53:50;76836.00;;;-142.35;75.91
8585;BME280;7180;52.742;11.420;2023-12-28T08:56:17;76797.69;;;-142.35;75.76
8585;BME280;7180;52.742;11.420;2023-12-28T08:58:46;76769.47;;;-142.35;75.51
8585;BME280;7180;52.742;11.420;2023-12-28T09:01:19;76731.16;;;-142.35;74.69
8585;BME280;7180;52.742;11.420;2023-12-28T09:03:50;76692.88;;;-142.35;74.44
8585;BME280;7180;52.742;11.420;2023-12-28T09:06:16;76648.53;;;-142.35;74.25
8585;BME280;7180;52.742;11.420;2023-12-28T09:08:43;76614.25;;;-142.35;73.49
8585;BME280;7180;52.742;11.420;2023-12-28T09:11:11;76600.16;;;-142.35;73.43
8585;BME280;7180;52.742;11.420;2023-12-28T09:13:38;76571.94;;;-142.35;73.18
8585;BME280;7180;52.742;11.420;2023-12-28T09:16:04;76541.69;;;-142.35;72.59
8585;BME280;7180;52.742;11.420;2023-12-28T09:18:29;76505.41;;;-142.35;72.58
8585;BME280;7180;52.742;11.420;2023-12-28T09:20:54;76459.03;;;-142.35;71.99
8585;BME280;7180;52.742;11.420;2023-12-28T09:23:20;76422.75;;;-142.35;71.60
8585;BME280;7180;52.742;11.420;2023-12-28T09:25:45;76394.53;;;-142.35;71.18
8585;BME280;7180;52.742;11.420;2023-12-28T09:28:11;76362.28;;;-142.35;70.74
8585;BME280;7180;52.742;11.420;2023-12-28T09:30:36;76334.06;;;-142.35;70.54
8585;BME280;7180;52.742;11.420;2023-12-28T09:33:01;76289.72;;;-142.35;70.26
8585;BME280;7180;52.742;11.420;2023-12-28T09:35:26;76241.34;;;-142.35;69.56
8585;BME280;7180;52.742;11.420;2023-12-28T09:37:52;76217.16;;;-142.35;69.42
8585;BME280;7180;52.742;11.420;2023-12-28T09:40:17;76195.00;;;-142.35;69.03
8585;BME280;7180;52.742;11.420;2023-12-28T09:42:56;76176.84;;;-142.35;68.89
8585;BME280;7180;52.742;11.420;2023-12-28T09:45:25;76128.47;;;-142.35;68.74
8585;BME280;7180;52.742;11.420;2023-12-28T09:47:50;76090.19;;;-142.35;68.47
8585;BME280;7180;52.742;11.420;2023-12-28T09:50:17;76072.03;;;-142.35;68.02
8585;BME280;7180;52.742;11.420;2023-12-28T09:52:43;76015.63;;;-142.35;67.74
8585;BME280;7180;52.742;11.420;2023-12-28T09:55:08;75975.31;;;-142.35;67.42
8585;BME280;7180;52.742;11.420;2023-12-28T09:57:34;75943.06;;;-142.35;67.10
8585;BME280;7180;52.742;11.420;2023-12-28T10:00:01;75935.00;;;-142.35;66.85
8585;BME280;7180;52.742;11.420;2023-12-28T10:02:26;75930.97;;;-142.35;66.75
8585;BME280;7180;52.742;11.420;2023-12-28T10:04:52;75959.19;;;-142.35;67.11
8585;BME280;7180;52.742;11.420;2023-12-28T10:07:18;75967.25;;;-142.35;66.90
8585;BME280;7180;52.742;11.420;2023-12-28T10:09:43;75945.06;;;-142.35;66.97
8585;BME280;7180;52.742;11.420;2023-12-28T10:12:09;75935.00;;;-142.35;66.85
8585;BME280;7180;52.742;11.420;2023-12-28T10:14:35;75922.91;;;-142.35;66.72
8585;BME280;7180;52.742;11.420;2023-12-28T10:17:00;75880.59;;;-142.35;66.50
8585;BME280;7180;52.742;11.420;2023-12-28T10:19:27;75852.38;;;-142.35;65.93
8585;BME280;7180;52.742;11.420;2023-12-28T10:21:52;75870.50;;;-142.35;66.00
8585;BME280;7180;52.742;11.420;2023-12-28T10:24:17;75844.31;;;-142.35;65.75
8585;BME280;7180;52.742;11.420;2023-12-28T10:26:43;75834.22;;;-142.35;65.81
8585;BME280;7180;52.742;11.420;2023-12-28T10:29:08;75810.03;;;-142.35;65.74
8585;BME280;7180;52.742;11.420;2023-12-28T10:31:33;75806.00;;;-142.35;65.73
8585;BME280;7180;52.742;11.420;2023-12-28T10:33:59;75810.03;;;-142.35;65.88
8585;BME280;7180;52.742;11.420;2023-12-28T10:36:27;75810.03;;;-142.35;65.51
8585;BME280;7180;52.742;11.420;2023-12-28T10:38:53;75757.66;;;-142.35;65.24
8585;BME280;7180;52.742;11.420;2023-12-28T10:41:19;75745.56;;;-142.35;64.96
8585;BME280;7180;52.742;11.420;2023-12-28T10:43:46;75725.41;;;-142.35;65.17
8585;BME280;7180;52.742;11.420;2023-12-28T10:46:25;75691.13;;;-142.35;64.46
8585;BME280;7180;52.742;11.420;2023-12-28T10:48:53;75677.03;;;-142.35;64.66
8585;BME280;7180;52.742;11.420;2023-12-28T10:51:24;75699.19;;;-142.35;64.74
8585;BME280;7180;52.742;11.420;2023-12-28T10:56:36;75644.78;;;-142.35;64.42
8585;BME280;7180;52.742;11.420;2023-12-28T11:02:10;75662.94;;;-142.35;64.47
8585;BME280;7180;52.742;11.420;2023-12-28T11:04:41;75691.13;;;-142.35;64.73
8585;BME280;7180;52.742;11.420;2023-12-28T11:07:09;75691.13;;;-142.35;64.51
8585;BME280;7180;52.742;11.420;2023-12-28T11:09:35;75677.03;;;-142.35;64.43
8585;BME280;7180;52.742;11.420;2023-12-28T11:12:02;75683.09;;;-142.35;64.43
8585;BME280;7180;52.742;11.420;2023-12-28T11:14:30;75741.53;;;-142.35;64.57
8585;BME280;7180;52.742;11.420;2023-12-28T11:16:58;75743.53;;;-142.35;64.70
8585;BME280;7180;52.742;11.420;2023-12-28T11:19:24;75753.63;;;-142.35;64.71
8585;BME280;7180;52.742;11.420;2023-12-28T11:21:50;75745.56;;;-142.35;64.54
8585;BME280;7180;52.742;11.420;2023-12-28T11:24:16;75749.59;;;-142.35;64.37
8585;BME280;7180;52.742;11.420;2023-12-28T11:26:42;75781.84;;;-142.35;64.64
8585;BME280;7180;52.742;11.420;2023-12-28T11:29:08;75777.78;;;-142.35;64.74
8585;BME280;7180;52.742;11.420;2023-12-28T11:31:34;75759.66;;;-142.35;64.44
8585;BME280;7180;52.742;11.420;2023-12-28T11:34:00;75737.50;;;-142.35;64.58
8585;BME280;7180;52.742;11.420;2023-12-28T11:36:33;75717.34;;;-142.35;64.15
8585;BME280;7180;52.742;11.420;2023-12-28T11:39:05;75705.25;;;-142.35;64.07
8585;BME280;7180;52.742;11.420;2023-12-28T11:41:32;75701.22;;;-142.35;64.22
8585;BME280;7180;52.742;11.420;2023-12-28T11:44:02;75711.28;;;-142.35;64.34
8585;BME280;7180;52.742;11.420;2023-12-28T11:46:29;75695.16;;;-142.35;64.01
8585;BME280;7180;52.742;11.420;2023-12-28T11:49:03;75693.16;;;-142.35;63.85
8585;BME280;7180;52.742;11.420;2023-12-28T11:51:29;75711.28;;;-142.35;63.99
8585;BME280;7180;52.742;11.420;2023-12-28T11:53:55;75683.09;;;-142.35;63.88
8585;BME280;7180;52.742;11.420;2023-12-28T11:56:20;75677.03;;;-142.35;63.80
8585;BME280;7180;52.742;11.420;2023-12-28T11:58:46;75624.63;;;-142.35;63.60
8585;BME280;7180;52.742;11.420;2023-12-28T12:01:13;75570.22;;;-142.35;63.30
8585;BME280;7180;52.742;11.420;2023-12-28T12:03:38;75511.78;;;-142.35;62.73
8585;BME280;7180;52.742;11.420;2023-12-28T12:06:04;75455.38;;;-142.35;62.43
8585;BME280;7180;52.742;11.420;2023-12-28T12:08:29;75404.97;;;-142.35;62.22
8585;BME280;7180;52.742;11.420;2023-12-28T12:11:07;75384.84;;;-142.35;62.19
8585;BME280;7180;52.742;11.420;2023-12-28T12:13:33;75334.47;;;-142.35;61.65
8585;BME280;7180;52.742;11.420;2023-12-28T12:15:58;75290.13;;;-142.35;61.56
8585;BME280;7180;52.742;11.420;2023-12-28T12:18:24;75290.13;;;-142.35;61.35
8585;BME280;7180;52.742;11.420;2023-12-28T12:20:50;75274.00;;;-142.35;61.27
8585;BME280;7180;52.742;11.420;2023-12-28T12:23:16;75253.84;;;-142.35;61.02
8585;BME280;7180;52.742;11.420;2023-12-28T12:25:41;75284.09;;;-142.35;61.39
8585;BME280;7180;52.742;11.420;2023-12-28T12:28:07;75296.16;;;-142.35;61.55
8585;BME280;7180;52.742;11.420;2023-12-28T12:30:34;75320.34;;;-142.35;61.45
8585;BME280;7180;52.742;11.420;2023-12-28T12:32:59;75328.41;;;-142.35;61.34
8585;BME280;7180;52.742;11.420;2023-12-28T12:35:25;75342.53;;;-142.35;61.32
8585;BME280;7180;52.742;11.420;2023-12-28T12:37:50;75278.03;;;-142.35;61.01
8585;BME280;7180;52.742;11.420;2023-12-28T12:40:17;75294.16;;;-142.35;61.24
8585;BME280;7180;52.742;11.420;2023-12-28T12:42:52;75320.34;;;-142.35;61.19
8585;BME280;7180;52.742;11.420;2023-12-28T12:45:18;75276.03;;;-142.35;60.76
8585;BME280;7180;52.742;11.420;2023-12-28T12:47:43;75245.81;;;-142.35;60.97
8585;BME280;7180;52.742;11.420;2023-12-28T12:50:09;75288.13;;;-142.35;60.96
8585;BME280;7180;52.742;11.420;2023-12-28T12:52:36;75239.75;;;-142.35;60.70
8585;BME280;7180;52.742;11.420;2023-12-28T12:55:01;75221.63;;;-142.35;60.52